Pocahontas, AR

7:19 PM CDT on August 28, 2016 (GMT -0500)
Rural Ravenden Springs | | Change Station
Active Advisory: Flood Warning

Elev 680 ft 36.31 °N, 91.20 °W | Updated 8 minutes ago

Clear
Clear
88.9 °F
Feels Like 103 °F
N
0.0
Wind Variable Wind from SSE

Today
High -- | Low -- °F
--% Chance of Precip.
Yesterday
High -- | Low -- °F
Precip. -- in
Pressure 30.03 in
Visibility 10.0 miles
Clouds Clear
Heat Index 103 °F
Dew Point 78 °F
Humidity 71%
Rainfall 0.00 in
Snow Depth Not available.
6:32 AM 7:36 PM
Waning Crescent, 12% visible
METAR KARG 290015Z AUTO 00000KT 10SM CLR 29/24 A3003 RMK AO1
Pressure 30.03 in
Visibility 10.0 miles
Clouds Clear
Heat Index 103 °F
Dew Point 78 °F
Humidity 71%
Rainfall 0.00 in
Snow Depth Not available.
6:32 AM 7:36 PM
Waning Crescent, 12% visible
METAR KARG 290015Z AUTO 00000KT 10SM CLR 29/24 A3003 RMK AO1

10-Day Weather Forecast

Almanac

Astronomy

Aug. 28, 2016 Rise Set
Actual Time
Civil Twilight
Nautical Twilight
Astronomical Twilight
Moon
Length of Visible Light
Length of Day
Tomorrow will be .
, % of the Moon is Illuminated

Today's Extremes

State Highs State Lows

Community

WunderPhotos

Upload Photos

1,935,728 photos uploaded!

WunderBlog® & News

Nearby

Air Quality

  Air Quality AQ Index Pollutant
Not available.

Snow Depth

Station Depth Elevation

Earthquake Activity

City Distance Mag. Time & Date
Minimum magnitude displayed is 2.5.

Coastal Water Temperatures

Place Temperature

Stations

Nearby Weather Stations

Station Location Temp. Windchill Dew Point Humidity Wind Precip. Elev Updated Type
                   

Watches & Warnings

Flood Warning
Issued: 9:07 AM CDT Aug. 28, 2016 – National Weather Service

The Flood Warning continues for
the Black River at Pocahontas.
* Until Thursday evening... or until the warning is cancelled.
* At 8:00 am Sunday the stage was 19.4 feet.
* Minor flooding is occurring and minor flooding is forecast.
* Flood stage is 17.0 feet.
* Forecast... the river will continue to fall to below flood stage by
Wednesday early afternoon.




             Fld observed forecast 6 am
location stg stg day time Mon Tue Wed Thu Fri

Black River
Pocahontas 17 19.4 sun 08 am 18.2 17.5 17.1 16.8 16.5




Lat... Lon 3612 9115 3625 9106 3630 9095 3620 9089
3617 9098 3610 9101